Time;durP1;ratioP1;P1;durP2;ratioP2;P2;SDS_P1;SDS_P2;PMS_P1;PMS_P2;Temp;Humidity;BMP_temperature;BMP_pressure;BME280_temperature;BME280_humidity;BME280_pressure;Samples;Min_cycle;Max_cycle;Signal;HPM_P1;HPM_P2
2024/01/09 00:00:54;;;;;;;4.00;1.77;;;;;;;-3.95;70.27;103138.78;5073894;28;20278;-89
2024/01/09 00:03:20;;;;;;;3.65;1.60;;;;;;;-3.94;70.80;103135.19;5073532;28;20036;-88
2024/01/09 00:05:45;;;;;;;2.20;1.10;;;;;;;-3.99;71.19;103140.69;5056889;28;20029;-88
2024/01/09 00:08:11;;;;;;;2.33;1.00;;;;;;;-4.01;71.68;103141.69;5073608;28;20516;-88
2024/01/09 00:10:36;;;;;;;2.87;1.17;;;;;;;-3.98;72.54;103139.78;5056564;28;20431;-89
2024/01/09 00:13:03;;;;;;;3.10;1.30;;;;;;;-3.93;72.94;103139.56;5074656;28;20473;-88
2024/01/09 00:15:29;;;;;;;2.67;0.90;;;;;;;-4.01;73.00;103142.56;5073441;28;20028;-88
2024/01/09 00:17:56;;;;;;;3.80;1.17;;;;;;;-4.04;73.46;103126.78;5056551;28;20286;-88
2024/01/09 00:20:22;;;;;;;2.97;1.40;;;;;;;-4.05;72.45;103131.19;5073866;28;20546;-89
2024/01/09 00:22:48;;;;;;;2.30;1.00;;;;;;;-4.00;74.90;103135.44;5056320;28;20032;-88
2024/01/09 00:25:16;;;;;;;2.88;1.10;;;;;;;-4.03;74.23;103131.16;5055649;28;20488;-88
2024/01/09 00:27:42;;;;;;;3.20;1.13;;;;;;;-3.99;75.08;103134.53;5065925;28;20142;-90
2024/01/09 00:30:08;;;;;;;3.43;1.40;;;;;;;-3.96;73.77;103145.00;5063018;28;20165;-88
2024/01/09 00:32:33;;;;;;;3.75;1.55;;;;;;;-4.03;71.79;103138.22;5056708;28;20043;-88
2024/01/09 00:35:01;;;;;;;2.43;1.00;;;;;;;-4.01;74.41;103139.03;5056571;28;20491;-89
2024/01/09 00:37:26;;;;;;;4.10;1.08;;;;;;;-4.01;74.39;103141.69;5073699;28;20082;-88
2024/01/09 00:39:52;;;;;;;3.47;1.03;;;;;;;-4.03;74.72;103140.88;5039173;28;20028;-88
2024/01/09 00:42:17;;;;;;;2.88;0.80;;;;;;;-4.12;75.17;103123.56;5073650;28;20457;-89
2024/01/09 00:44:43;;;;;;;4.27;1.00;;;;;;;-4.08;76.48;103144.56;5073094;28;20491;-88
2024/01/09 00:47:08;;;;;;;2.50;0.87;;;;;;;-4.13;75.66;103130.66;5039417;28;20059;-88
2024/01/09 00:49:36;;;;;;;3.43;1.40;;;;;;;-4.06;75.31;103133.91;5055941;28;20024;-88
2024/01/09 00:52:02;;;;;;;2.47;1.27;;;;;;;-4.07;75.11;103129.56;5055841;28;20032;-88
2024/01/09 00:54:28;;;;;;;3.08;1.35;;;;;;;-4.10;74.99;103124.38;5055842;28;20036;-88
2024/01/09 00:56:57;;;;;;;3.42;1.15;;;;;;;-4.09;74.87;103126.09;5056274;28;20047;-88
2024/01/09 00:59:22;;;;;;;3.28;1.10;;;;;;;-4.07;75.18;103130.41;5056044;28;20043;-88
2024/01/09 01:01:53;;;;;;;2.05;0.93;;;;;;;-4.08;76.31;103125.16;5056425;28;20032;-88
2024/01/09 01:04:23;;;;;;;3.47;1.48;;;;;;;-4.10;74.09;103127.03;5039478;28;20032;-88
2024/01/09 01:06:49;;;;;;;2.55;1.00;;;;;;;-4.11;75.32;103120.84;5055818;28;20496;-89
2024/01/09 01:09:17;;;;;;;3.60;1.40;;;;;;;-4.11;74.27;103133.25;5055782;28;20032;-88
2024/01/09 01:11:42;;;;;;;3.08;1.10;;;;;;;-4.14;75.64;103126.28;5072058;28;20029;-88
2024/01/09 01:14:07;;;;;;;2.20;1.00;;;;;;;-4.13;75.39;103130.66;5055682;28;20551;-88
2024/01/09 01:16:33;;;;;;;3.30;1.77;;;;;;;-4.17;73.98;103129.06;5073448;28;20027;-88
2024/01/09 01:18:58;;;;;;;5.13;1.70;;;;;;;-4.20;72.54;103128.34;5055254;28;20287;-89
2024/01/09 01:21:24;;;;;;;2.47;1.03;;;;;;;-4.25;74.78;103128.53;5059800;28;20055;-89
2024/01/09 01:23:49;;;;;;;4.80;1.50;;;;;;;-4.23;74.87;103132.81;5075198;28;20028;-89
2024/01/09 01:26:15;;;;;;;2.13;0.80;;;;;;;-4.23;74.92;103140.78;5093722;28;20024;-88
2024/01/09 01:28:44;;;;;;;4.13;1.30;;;;;;;-4.30;75.22;103120.72;5075338;28;20379;-88
2024/01/09 01:31:09;;;;;;;4.57;1.27;;;;;;;-4.29;75.33;103119.81;5075161;28;20377;-90
2024/01/09 01:33:40;;;;;;;2.42;0.90;;;;;;;-4.20;75.10;103137.13;5075304;28;20080;-89
2024/01/09 01:36:12;;;;;;;3.63;1.40;;;;;;;-4.30;74.67;103123.38;5075151;28;20028;-88
2024/01/09 01:38:37;;;;;;;3.47;1.37;;;;;;;-4.27;74.35;103139.16;5075560;28;20423;-88
2024/01/09 01:41:03;;;;;;;2.60;0.77;;;;;;;-4.26;76.92;103153.31;5075154;28;20781;-86
2024/01/09 01:43:28;;;;;;;3.10;1.23;;;;;;;-4.28;75.36;103148.06;5075707;28;20391;-83
2024/01/09 01:45:54;;;;;;;2.90;1.23;;;;;;;-4.27;76.05;103146.25;5075731;28;20104;-83
2024/01/09 01:48:20;;;;;;;1.75;0.75;;;;;;;-4.27;77.63;103140.97;5059222;28;20036;-83
2024/01/09 01:50:45;;;;;;;3.83;1.40;;;;;;;-4.28;75.33;103149.81;5058953;28;20491;-84
2024/01/09 01:53:11;;;;;;;4.35;1.20;;;;;;;-4.27;75.60;103140.97;5059181;28;20036;-84
2024/01/09 01:55:37;;;;;;;3.27;1.03;;;;;;;-4.27;76.62;103149.78;5059122;28;20131;-83
2024/01/09 01:58:03;;;;;;;2.20;0.97;;;;;;;-4.28;75.55;103137.47;5075931;28;20033;-83
2024/01/09 02:00:29;;;;;;;3.75;1.67;;;;;;;-4.31;75.08;103139.34;5042310;28;20487;-83
2024/01/09 02:02:55;;;;;;;1.90;0.90;;;;;;;-4.32;76.93;103143.81;5093405;28;20097;-83
2024/01/09 02:05:24;;;;;;;2.45;1.10;;;;;;;-4.35;76.91;103149.22;5075494;28;20123;-84
2024/01/09 02:07:53;;;;;;;3.15;1.42;;;;;;;-4.36;75.45;103144.00;5075173;28;20035;-83
2024/01/09 02:10:19;;;;;;;2.67;0.90;;;;;;;-4.36;76.63;103149.28;5075711;28;20452;-83
2024/01/09 02:12:45;;;;;;;4.40;1.20;;;;;;;-4.35;76.57;103148.38;5093578;28;20051;-83
2024/01/09 02:15:10;;;;;;;3.97;1.20;;;;;;;-4.37;77.02;103134.31;5075674;28;20429;-83
2024/01/09 02:17:38;;;;;;;2.43;0.80;;;;;;;-4.37;78.13;103132.53;5058981;28;20046;-84
2024/01/09 02:20:05;;;;;;;3.08;1.17;;;;;;;-4.40;77.74;103135.28;5059098;28;20042;-83
2024/01/09 02:22:30;;;;;;;3.60;1.30;;;;;;;-4.43;76.82;103130.09;5071674;28;20052;-83
2024/01/09 02:24:56;;;;;;;3.05;1.00;;;;;;;-4.43;78.23;103124.81;5073979;28;20344;-83
2024/01/09 02:27:46;;;;;;;3.17;1.07;;;;;;;-4.41;78.28;103131.78;5072117;28;20039;-83
2024/01/09 02:30:11;;;;;;;2.28;0.90;;;;;;;-4.41;78.60;103129.13;5073216;28;20028;-84
2024/01/09 02:32:41;;;;;;;2.97;0.70;;;;;;;-4.42;79.27;103135.34;5072285;28;20473;-84
2024/01/09 02:35:06;;;;;;;4.20;1.40;;;;;;;-4.44;78.75;103136.34;5071739;28;20391;-83
2024/01/09 02:37:32;;;;;;;4.33;1.50;;;;;;;-4.46;77.87;103128.47;5058934;28;20032;-84
2024/01/09 02:40:01;;;;;;;4.30;1.27;;;;;;;-4.44;79.30;103129.25;5059074;28;20060;-83
2024/01/09 02:42:27;;;;;;;2.20;1.00;;;;;;;-4.42;79.41;103132.69;5059013;28;20036;-84
2024/01/09 02:44:54;;;;;;;3.63;1.38;;;;;;;-4.43;76.69;103123.03;5058931;28;20035;-84
2024/01/09 02:47:23;;;;;;;2.33;1.10;;;;;;;-4.48;79.45;103130.28;5058979;28;20131;-84
2024/01/09 02:49:48;;;;;;;1.70;0.82;;;;;;;-4.47;80.00;103123.22;5075658;28;20282;-84
2024/01/09 02:52:15;;;;;;;2.40;1.20;;;;;;;-4.48;79.18;103122.34;5059641;28;20032;-84
2024/01/09 02:54:41;;;;;;;3.93;1.47;;;;;;;-4.49;78.60;103117.09;5059183;28;20518;-83
2024/01/09 02:57:06;;;;;;;2.83;0.93;;;;;;;-4.51;81.10;103124.28;5058655;28;20373;-83
2024/01/09 02:59:31;;;;;;;1.90;0.80;;;;;;;-4.52;80.82;103117.22;5059075;28;20063;-83
2024/01/09 03:01:57;;;;;;;3.40;1.40;;;;;;;-4.54;80.79;103113.78;5058634;28;20032;-83
2024/01/09 03:04:22;;;;;;;4.03;1.27;;;;;;;-4.53;80.45;103116.38;5075745;28;20044;-84
2024/01/09 03:06:48;;;;;;;3.27;1.00;;;;;;;-4.51;80.68;103108.38;5075579;28;20161;-83
2024/01/09 03:09:13;;;;;;;2.38;0.88;;;;;;;-4.50;80.79;103108.31;5042615;28;20060;-83
2024/01/09 03:11:38;;;;;;;3.03;1.40;;;;;;;-4.50;80.41;103104.78;5058573;28;20060;-83
2024/01/09 03:14:04;;;;;;;2.40;0.93;;;;;;;-4.51;80.44;103106.56;5058720;28;20036;-84
2024/01/09 03:16:29;;;;;;;3.17;1.40;;;;;;;-4.50;79.04;103110.97;5075057;28;20115;-83
2024/01/09 03:18:55;;;;;;;2.57;1.10;;;;;;;-4.51;81.00;103111.88;5058953;28;20175;-84
2024/01/09 03:21:21;;;;;;;2.60;0.95;;;;;;;-4.53;81.92;103104.91;5058020;28;20291;-84
2024/01/09 03:23:46;;;;;;;3.03;1.27;;;;;;;-4.56;80.57;103110.31;5058739;28;20123;-84
2024/01/09 03:26:11;;;;;;;2.00;0.90;;;;;;;-4.56;82.16;103116.50;5058002;28;20499;-83
2024/01/09 03:28:37;;;;;;;2.45;0.95;;;;;;;-4.54;81.99;103113.78;5058162;28;20051;-83
2024/01/09 03:31:03;;;;;;;3.27;1.50;;;;;;;-4.54;80.87;103119.94;5058124;28;20086;-83
2024/01/09 03:33:29;;;;;;;1.70;0.80;;;;;;;-4.55;82.27;103115.56;5074294;28;20677;-85
2024/01/09 03:35:54;;;;;;;3.20;1.00;;;;;;;-4.60;82.27;103113.09;5041581;28;20526;-83
2024/01/09 03:38:19;;;;;;;3.63;1.25;;;;;;;-4.62;81.77;103111.44;5074306;28;20077;-83
2024/01/09 03:40:45;;;;;;;4.82;1.75;;;;;;;-4.62;81.16;103111.44;5040752;28;20035;-84
2024/01/09 03:43:11;;;;;;;6.60;1.40;;;;;;;-4.63;81.78;103107.06;5074854;28;20037;-83
2024/01/09 03:45:36;;;;;;;2.65;0.90;;;;;;;-4.60;83.12;103107.81;5057449;28;20029;-84
2024/01/09 03:48:02;;;;;;;2.87;0.83;;;;;;;-4.61;82.03;103103.41;5073630;28;20040;-84
2024/01/09 03:50:27;;;;;;;1.93;0.80;;;;;;;-4.60;82.09;103106.94;5074733;28;20062;-84
2024/01/09 03:52:53;;;;;;;2.77;1.17;;;;;;;-4.60;83.19;103112.25;5057599;28;20033;-84
2024/01/09 03:55:18;;;;;;;3.28;1.02;;;;;;;-4.59;82.93;103106.03;5074169;28;20025;-84
2024/01/09 03:57:44;;;;;;;3.47;1.17;;;;;;;-4.59;82.93;103111.34;5074495;28;20036;-84
2024/01/09 04:00:09;;;;;;;2.40;1.17;;;;;;;-4.63;83.73;103110.56;5040910;28;20044;-84
2024/01/09 04:02:35;;;;;;;2.92;1.02;;;;;;;-4.63;84.72;103109.72;5074216;28;20527;-84
2024/01/09 04:05:01;;;;;;;2.47;1.00;;;;;;;-4.64;84.20;103111.47;5041244;28;20056;-84
2024/01/09 04:07:27;;;;;;;4.63;1.40;;;;;;;-4.66;83.90;103104.53;5074307;28;20171;-84
2024/01/09 04:09:52;;;;;;;3.40;1.53;;;;;;;-4.68;83.93;103114.31;5073731;28;20487;-84
2024/01/09 04:12:18;;;;;;;2.87;1.20;;;;;;;-4.69;83.67;103102.88;5057160;28;20465;-84
2024/01/09 04:14:43;;;;;;;5.88;1.58;;;;;;;-4.71;83.08;103099.44;5074094;28;20032;-84
2024/01/09 04:17:09;;;;;;;2.63;1.27;;;;;;;-4.70;84.66;103105.59;5074037;28;20036;-84
2024/01/09 04:19:40;;;;;;;3.47;1.10;;;;;;;-4.69;85.28;103096.72;5057265;28;20476;-84
2024/01/09 04:22:06;;;;;;;2.97;1.00;;;;;;;-4.67;85.10;103098.38;5073355;28;20062;-85
2024/01/09 04:24:33;;;;;;;3.47;1.20;;;;;;;-4.67;84.32;103105.47;5073719;28;20408;-84
2024/01/09 04:26:58;;;;;;;3.15;1.20;;;;;;;-4.69;83.58;103102.03;5074570;28;20043;-83
2024/01/09 04:29:25;;;;;;;4.47;1.73;;;;;;;-4.71;81.91;103099.44;5073504;28;20155;-83
2024/01/09 04:31:50;;;;;;;3.60;1.83;;;;;;;-4.70;82.13;103100.28;5057197;28;20032;-83
2024/01/09 04:34:19;;;;;;;4.47;1.80;;;;;;;-4.73;82.29;103105.72;5057059;28;20136;-83
2024/01/09 04:36:44;;;;;;;2.35;1.20;;;;;;;-4.76;83.09;103118.13;5057120;28;20051;-83
2024/01/09 04:39:09;;;;;;;2.20;0.83;;;;;;;-4.76;83.49;103110.19;5074260;28;20110;-83
2024/01/09 04:41:35;;;;;;;4.50;1.23;;;;;;;-4.76;84.66;103109.31;5074122;28;20036;-83
2024/01/09 04:44:00;;;;;;;4.07;1.10;;;;;;;-4.75;84.29;103108.41;5073118;28;20044;-83
2024/01/09 04:46:26;;;;;;;2.33;1.10;;;;;;;-4.73;84.97;103111.84;5072829;28;20032;-83
2024/01/09 04:48:51;;;;;;;2.77;1.07;;;;;;;-4.71;84.89;103104.72;5056360;28;20066;-83
2024/01/09 04:51:17;;;;;;;3.57;1.27;;;;;;;-4.70;84.01;103109.09;5073454;28;20029;-84
2024/01/09 04:53:42;;;;;;;3.33;1.13;;;;;;;-4.71;83.85;103110.03;5073055;28;20040;-84
2024/01/09 04:56:08;;;;;;;2.80;1.10;;;;;;;-4.70;84.44;103118.81;5056982;28;20611;-84
2024/01/09 04:58:34;;;;;;;2.63;1.10;;;;;;;-4.71;84.41;103111.78;5055862;28;20032;-83
2024/01/09 05:00:59;;;;;;;2.55;1.15;;;;;;;-4.74;84.19;103111.91;5072783;28;20538;-83
2024/01/09 05:03:25;;;;;;;4.27;1.40;;;;;;;-4.74;84.03;103109.28;5072977;28;20061;-83
2024/01/09 05:05:51;;;;;;;1.97;0.93;;;;;;;-4.76;84.39;103111.97;5072725;28;20052;-84
2024/01/09 05:08:16;;;;;;;2.60;1.08;;;;;;;-4.77;84.35;103099.66;5055856;28;20054;-83
2024/01/09 05:10:42;;;;;;;3.13;1.10;;;;;;;-4.77;84.47;103107.59;5055683;28;20041;-83
2024/01/09 05:13:07;;;;;;;3.60;1.37;;;;;;;-4.77;83.57;103105.81;5074009;28;20039;-83
2024/01/09 05:15:33;;;;;;;5.50;1.95;;;;;;;-4.81;81.73;103106.00;5056060;28;20032;-84
2024/01/09 05:17:58;;;;;;;2.60;1.13;;;;;;;-4.85;83.89;103107.03;5072315;28;20024;-83
2024/01/09 05:20:23;;;;;;;2.80;1.07;;;;;;;-4.91;83.71;103110.78;5055982;28;20036;-84
2024/01/09 05:22:49;;;;;;;3.10;1.13;;;;;;;-4.90;84.93;103103.69;5056207;28;20053;-83
2024/01/09 05:25:14;;;;;;;3.15;1.23;;;;;;;-4.94;83.81;103109.09;5072667;28;20533;-83
2024/01/09 05:27:42;;;;;;;3.47;1.30;;;;;;;-4.92;84.79;103114.34;5038973;28;20380;-83
2024/01/09 05:30:10;;;;;;;2.67;1.23;;;;;;;-4.94;84.72;103113.56;5073692;28;20094;-83
2024/01/09 05:32:36;;;;;;;2.43;0.83;;;;;;;-4.93;85.54;103113.50;5072518;28;20040;-83
2024/01/09 05:35:02;;;;;;;5.15;1.10;;;;;;;-4.91;85.92;103108.13;5072731;28;20036;-83
2024/01/09 05:37:28;;;;;;;2.17;0.80;;;;;;;-4.90;86.04;103106.34;5072821;28;20037;-83
2024/01/09 05:39:53;;;;;;;3.25;1.10;;;;;;;-4.89;86.89;103103.63;5055821;28;20035;-83
2024/01/09 05:42:18;;;;;;;4.00;1.30;;;;;;;-4.86;85.63;103103.50;5056198;28;20135;-83
2024/01/09 05:44:44;;;;;;;6.00;1.77;;;;;;;-4.89;85.44;103108.94;5072514;28;20119;-84
2024/01/09 05:47:09;;;;;;;3.53;0.97;;;;;;;-4.88;86.20;103108.03;5039035;28;20107;-84
2024/01/09 05:49:35;;;;;;;4.10;0.98;;;;;;;-4.86;86.17;103107.97;5055825;28;20036;-83
2024/01/09 05:52:00;;;;;;;3.50;0.90;;;;;;;-4.86;86.23;103105.31;5038932;28;20035;-83
2024/01/09 05:54:26;;;;;;;3.00;1.03;;;;;;;-4.86;86.07;103113.25;5055259;28;20037;-82
2024/01/09 05:56:53;;;;;;;2.50;0.90;;;;;;;-4.90;86.84;103109.88;5072017;28;20029;-83
2024/01/09 05:59:18;;;;;;;4.45;1.70;;;;;;;-4.94;84.40;103113.56;5039024;28;20064;-84
2024/01/09 06:01:44;;;;;;;3.17;1.63;;;;;;;-4.90;85.26;103109.88;5072161;28;20029;-83
2024/01/09 06:04:11;;;;;;;4.03;1.20;;;;;;;-4.90;85.46;103109.00;5055434;28;20086;-83
2024/01/09 06:06:37;;;;;;;3.97;1.55;;;;;;;-4.94;85.59;103111.75;5055538;28;20037;-84
2024/01/09 06:09:02;;;;;;;2.13;0.90;;;;;;;-4.96;87.04;103105.66;5055357;28;20461;-83
2024/01/09 06:11:28;;;;;;;5.28;1.58;;;;;;;-4.95;86.86;103107.38;5075266;28;20440;-83
2024/01/09 06:13:55;;;;;;;4.47;2.17;;;;;;;-4.93;85.32;103102.06;5076052;28;20032;-83
2024/01/09 06:16:22;;;;;;;3.53;1.48;;;;;;;-4.94;86.62;103102.97;5077276;28;20025;-83
2024/01/09 06:18:47;;;;;;;3.05;1.33;;;;;;;-4.94;85.95;103100.31;5075597;28;20056;-84
2024/01/09 06:21:13;;;;;;;2.80;1.27;;;;;;;-4.95;86.08;103107.38;5077299;28;20353;-83
2024/01/09 06:23:41;;;;;;;4.17;1.33;;;;;;;-5.00;86.58;103109.34;5062398;28;20368;-83
2024/01/09 06:26:07;;;;;;;2.50;1.10;;;;;;;-5.02;86.42;103107.69;5079094;28;20391;-83
2024/01/09 06:28:34;;;;;;;3.17;1.60;;;;;;;-5.02;86.71;103111.22;5079017;28;20024;-83
2024/01/09 06:30:59;;;;;;;3.53;1.30;;;;;;;-5.00;87.59;103114.66;5097338;28;20032;-83
2024/01/09 06:33:26;;;;;;;3.97;2.00;;;;;;;-5.01;85.54;103120.00;5078742;28;20028;-83
2024/01/09 06:35:51;;;;;;;5.37;1.37;;;;;;;-4.98;87.73;103125.19;5062516;28;20495;-84
2024/01/09 06:38:16;;;;;;;4.32;1.35;;;;;;;-5.01;87.86;103118.22;5045721;28;20024;-83
2024/01/09 06:40:42;;;;;;;2.92;1.25;;;;;;;-4.97;88.05;103135.72;5078568;28;20107;-83
2024/01/09 06:43:07;;;;;;;4.20;1.60;;;;;;;-4.97;86.98;103127.78;5045472;28;20430;-83
2024/01/09 06:45:34;;;;;;;3.10;1.40;;;;;;;-4.96;88.18;103133.91;5096989;28;20513;-83
2024/01/09 06:47:59;;;;;;;2.40;1.13;;;;;;;-4.95;88.55;103128.56;5045331;28;20051;-85
2024/01/09 06:50:25;;;;;;;5.77;1.63;;;;;;;-4.96;86.41;103145.41;5078826;28;20111;-83
2024/01/09 06:52:50;;;;;;;2.70;1.13;;;;;;;-4.95;87.79;103139.16;5062730;28;20077;-83
2024/01/09 06:55:15;;;;;;;4.00;1.70;;;;;;;-4.95;88.26;103136.50;5061870;28;20331;-83
2024/01/09 06:57:41;;;;;;;3.47;1.43;;;;;;;-4.93;88.56;103141.78;5078956;28;20115;-83
2024/01/09 07:00:07;;;;;;;3.13;1.60;;;;;;;-4.94;87.12;103140.03;5062543;28;20149;-82
2024/01/09 07:02:32;;;;;;;4.57;1.88;;;;;;;-4.98;86.59;103131.31;5062049;28;20048;-83
2024/01/09 07:04:58;;;;;;;3.03;1.40;;;;;;;-5.00;87.85;103132.34;5061679;28;20036;-83
2024/01/09 07:07:23;;;;;;;4.00;1.43;;;;;;;-5.01;88.39;103135.88;5061565;28;20039;-83
2024/01/09 07:09:48;;;;;;;2.63;0.93;;;;;;;-5.00;89.27;103148.22;5078548;28;20028;-82
2024/01/09 07:12:16;;;;;;;2.53;1.10;;;;;;;-5.00;89.58;103124.38;5061825;28;20047;-83
2024/01/09 07:14:42;;;;;;;3.00;1.23;;;;;;;-4.99;89.73;103134.91;5061883;28;20153;-83
2024/01/09 07:17:07;;;;;;;5.30;1.30;;;;;;;-4.98;89.24;103133.97;5078048;28;20613;-83
2024/01/09 07:19:39;;;;;;;3.20;1.30;;;;;;;-4.97;90.08;103134.84;5060632;28;20476;-83
2024/01/09 07:22:05;;;;;;;3.60;1.27;;;;;;;-4.95;90.04;103135.66;5076649;28;20048;-83
2024/01/09 07:24:30;;;;;;;2.93;1.40;;;;;;;-4.91;88.79;103142.56;5077727;28;20582;-83
2024/01/09 07:26:59;;;;;;;3.22;1.30;;;;;;;-4.91;89.37;103136.41;5095303;28;20160;-83
2024/01/09 07:29:24;;;;;;;3.13;1.27;;;;;;;-4.93;89.73;103142.63;5078139;28;20081;-83
2024/01/09 07:31:50;;;;;;;4.68;1.83;;;;;;;-4.90;89.71;103146.06;5095853;28;20602;-84
2024/01/09 07:34:15;;;;;;;10.33;2.13;;;;;;;-4.91;89.44;103150.50;5078504;28;20296;-83
2024/01/09 07:36:42;;;;;;;3.57;1.37;;;;;;;-4.89;88.95;103161.03;5077720;28;20111;-84
2024/01/09 07:39:09;;;;;;;4.68;1.55;;;;;;;-4.88;90.07;103160.13;5061083;28;20472;-84
2024/01/09 07:41:35;;;;;;;5.38;2.05;;;;;;;-4.91;87.21;103162.91;5061054;28;20518;-83
2024/01/09 07:44:01;;;;;;;4.57;2.00;;;;;;;-4.91;88.51;103171.69;5078033;28;20077;-83
2024/01/09 07:46:29;;;;;;;4.47;1.58;;;;;;;-4.92;88.93;103167.31;5061081;28;20059;-83
2024/01/09 07:48:54;;;;;;;4.03;1.70;;;;;;;-4.98;88.35;103170.19;5061298;28;20020;-84
2024/01/09 07:51:19;;;;;;;4.93;1.58;;;;;;;-5.02;89.93;103173.88;5095312;28;20276;-83
2024/01/09 07:53:45;;;;;;;2.83;1.50;;;;;;;-5.03;89.90;103174.81;5076706;28;20416;-83
2024/01/09 07:56:17;;;;;;;4.57;1.53;;;;;;;-5.03;89.83;103173.00;5077838;28;20109;-83
2024/01/09 07:58:45;;;;;;;4.68;2.00;;;;;;;-5.02;88.83;103169.47;5077438;28;20024;-83
2024/01/09 08:01:11;;;;;;;4.05;1.40;;;;;;;-4.98;89.78;103172.84;5077623;28;20079;-83
2024/01/09 08:03:37;;;;;;;5.10;1.67;;;;;;;-4.95;90.04;103172.72;5095737;28;20043;-83
2024/01/09 08:06:06;;;;;;;3.40;1.50;;;;;;;-4.94;89.29;103171.81;5077740;28;20023;-83
2024/01/09 08:08:38;;;;;;;4.00;1.85;;;;;;;-4.97;88.53;103177.22;5060571;28;20032;-83
2024/01/09 08:11:03;;;;;;;3.70;1.50;;;;;;;-4.93;90.21;103171.75;5077238;28;20078;-85
2024/01/09 08:13:29;;;;;;;3.80;1.83;;;;;;;-4.89;91.06;103179.59;5044844;28;20418;-83
2024/01/09 08:15:54;;;;;;;5.47;2.05;;;;;;;-4.90;88.87;103180.50;5095355;28;20066;-85
2024/01/09 08:18:20;;;;;;;4.57;1.77;;;;;;;-4.90;90.08;103183.13;5044157;28;20032;-82
2024/01/09 08:20:45;;;;;;;4.23;1.83;;;;;;;-4.87;90.49;103185.66;5060081;28;20504;-84
2024/01/09 08:23:11;;;;;;;3.40;1.43;;;;;;;-4.84;89.91;103188.19;5060224;28;20498;-82
2024/01/09 08:25:36;;;;;;;4.47;1.40;;;;;;;-4.84;89.56;103190.84;5060329;28;20134;-83
2024/01/09 08:28:02;;;;;;;3.30;1.70;;;;;;;-4.81;90.68;103196.06;5043883;28;20110;-82
2024/01/09 08:30:27;;;;;;;4.27;1.70;;;;;;;-4.81;90.17;103186.31;5060512;28;20082;-82
2024/01/09 08:32:52;;;;;;;3.77;1.27;;;;;;;-4.83;90.85;103192.59;5076804;28;20042;-82
2024/01/09 08:35:18;;;;;;;7.53;2.33;;;;;;;-4.84;88.99;103188.19;5077160;28;20464;-82
2024/01/09 08:37:43;;;;;;;4.75;1.80;;;;;;;-4.82;90.22;103187.22;5094622;28;20024;-82
2024/01/09 08:40:09;;;;;;;5.17;1.87;;;;;;;-4.79;90.64;103191.56;5059886;28;20480;-84
2024/01/09 08:42:34;;;;;;;3.93;1.70;;;;;;;-4.76;91.33;103192.28;5043405;28;20503;-83
2024/01/09 08:45:02;;;;;;;4.85;1.90;;;;;;;-4.74;91.37;103197.53;5094382;28;20487;-83
2024/01/09 08:47:28;;;;;;;5.27;2.40;;;;;;;-4.72;89.49;103198.34;5059857;28;20043;-83
2024/01/09 08:49:53;;;;;;;4.53;2.20;;;;;;;-4.72;87.64;103192.19;5076214;28;20032;-84
2024/01/09 08:52:24;;;;;;;10.37;2.73;;;;;;;-4.72;88.17;103190.41;5095151;28;20027;-83
2024/01/09 08:54:53;;;;;;;5.43;2.65;;;;;;;-4.72;87.93;103195.72;5061164;28;20051;-83
2024/01/09 08:57:19;;;;;;;5.82;2.03;;;;;;;-4.72;89.76;103198.34;5076340;28;20034;-83
2024/01/09 08:59:45;;;;;;;5.05;2.13;;;;;;;-4.69;90.66;103197.38;5076706;28;20060;-83
2024/01/09 09:02:10;;;;;;;6.47;2.20;;;;;;;-4.65;90.28;103204.28;5059444;28;20035;-83
2024/01/09 09:04:36;;;;;;;5.13;2.20;;;;;;;-4.62;89.81;103190.91;5059367;28;20036;-83
2024/01/09 09:07:02;;;;;;;4.82;2.22;;;;;;;-4.56;89.58;103203.06;5076286;28;20032;-83
2024/01/09 09:09:28;;;;;;;4.00;1.98;;;;;;;-4.52;89.48;103202.88;5094263;28;20060;-84
2024/01/09 09:11:53;;;;;;;3.63;1.73;;;;;;;-4.48;87.70;103201.84;5059927;28;20085;-83
2024/01/09 09:14:19;;;;;;;6.23;2.20;;;;;;;-4.46;89.66;103205.31;5075680;28;20442;-83
2024/01/09 09:16:44;;;;;;;6.83;2.33;;;;;;;-4.46;87.92;103196.47;5076081;28;20043;-83
2024/01/09 09:19:10;;;;;;;6.65;2.58;;;;;;;-4.45;87.24;103203.53;5059210;28;20059;-83
2024/01/09 09:21:35;;;;;;;6.53;2.90;;;;;;;-4.44;86.79;103202.59;5056085;28;20080;-83
2024/01/09 09:24:01;;;;;;;3.80;1.97;;;;;;;-4.43;88.27;103202.53;5072801;28;20122;-83
2024/01/09 09:26:27;;;;;;;5.83;2.03;;;;;;;-4.41;88.36;103195.38;5072956;28;20491;-83
2024/01/09 09:28:55;;;;;;;9.45;3.58;;;;;;;-4.40;84.84;103198.88;5056406;28;20321;-83
2024/01/09 09:31:20;;;;;;;7.60;3.03;;;;;;;-4.41;85.10;103199.84;5072417;28;20036;-83
2024/01/09 09:33:46;;;;;;;4.83;2.33;;;;;;;-4.41;85.62;103190.09;5072653;28;20112;-83
2024/01/09 09:36:12;;;;;;;6.20;2.47;;;;;;;-4.37;85.23;103187.31;5039044;28;20048;-83
2024/01/09 09:38:40;;;;;;;5.75;2.70;;;;;;;-4.32;87.73;103198.63;5072206;28;20028;-83
2024/01/09 09:41:14;;;;;;;5.65;2.55;;;;;;;-4.27;84.89;103194.84;5055533;28;20079;-83
2024/01/09 09:43:47;;;;;;;4.75;2.70;;;;;;;-4.26;82.45;103199.22;5072515;28;20036;-83
2024/01/09 09:46:19;;;;;;;5.47;2.00;;;;;;;-4.21;85.77;103191.09;5071788;28;20032;-83
2024/01/09 09:48:45;;;;;;;4.20;2.00;;;;;;;-4.23;83.40;103196.44;5072783;28;20422;-83
2024/01/09 09:51:10;;;;;;;5.65;1.80;;;;;;;-4.20;84.41;103186.66;5039059;28;20032;-83
2024/01/09 09:53:36;;;;;;;3.95;1.95;;;;;;;-4.18;82.89;103190.94;5055842;28;20533;-83
2024/01/09 09:56:01;;;;;;;6.45;2.58;;;;;;;-4.12;84.26;103185.44;5072312;28;20477;-83
2024/01/09 09:58:27;;;;;;;5.07;2.07;;;;;;;-4.09;85.20;103193.25;5038727;28;20381;-83
2024/01/09 10:00:56;;;;;;;6.57;2.42;;;;;;;-4.05;84.16;103197.50;5038820;28;20473;-84
2024/01/09 10:03:24;;;;;;;6.07;2.57;;;;;;;-3.98;83.61;103200.78;5071588;28;20032;-83
2024/01/09 10:05:53;;;;;;;4.88;2.15;;;;;;;-3.96;82.28;103196.25;5072500;28;20274;-84
2024/01/09 10:08:21;;;;;;;7.97;2.92;;;;;;;-4.01;79.70;103179.69;5072665;28;20025;-83
2024/01/09 10:10:47;;;;;;;6.03;2.90;;;;;;;-4.02;79.49;103187.69;5072197;28;20119;-83
2024/01/09 10:13:12;;;;;;;4.33;2.17;;;;;;;-4.01;80.89;103182.34;5055305;28;20491;-83
2024/01/09 10:15:56;;;;;;;4.40;2.33;;;;;;;-4.00;82.17;103180.53;5055297;28;20032;-83
2024/01/09 10:18:22;;;;;;;7.45;2.63;;;;;;;-4.03;81.19;103176.25;5071982;28;20081;-83
2024/01/09 10:20:47;;;;;;;6.22;2.40;;;;;;;-4.02;82.24;103164.69;5038961;28;20123;-83
2024/01/09 10:23:14;;;;;;;5.83;2.70;;;;;;;-3.98;80.39;103173.41;5054948;28;20170;-83
2024/01/09 10:25:39;;;;;;;7.85;2.75;;;;;;;-3.93;80.36;103184.66;5055502;28;20029;-83
2024/01/09 10:28:08;;;;;;;6.73;2.37;;;;;;;-3.88;82.29;103164.97;5071988;28;20479;-83
2024/01/09 10:30:37;;;;;;;5.00;2.58;;;;;;;-3.81;80.75;103168.25;5073036;28;20028;-83
2024/01/09 10:33:09;;;;;;;5.60;2.35;;;;;;;-3.74;81.01;103171.50;5072065;28;20142;-83
2024/01/09 10:35:34;;;;;;;5.03;1.77;;;;;;;-3.67;85.23;103170.31;5072147;28;20068;-83
2024/01/09 10:38:00;;;;;;;5.97;2.22;;;;;;;-3.62;79.93;103167.47;5055220;28;20761;-83
2024/01/09 10:40:26;;;;;;;4.97;2.37;;;;;;;-3.64;78.67;103171.97;5055001;28;20488;-84
2024/01/09 10:42:51;;;;;;;4.97;2.42;;;;;;;-3.63;78.89;103169.25;5054918;28;20469;-84
2024/01/09 10:45:19;;;;;;;4.97;2.33;;;;;;;-3.60;77.62;103157.63;5071520;28;20465;-84
2024/01/09 10:47:45;;;;;;;5.68;2.38;;;;;;;-3.58;78.90;103161.09;5071654;28;20530;-84
2024/01/09 10:50:11;;;;;;;9.60;2.80;;;;;;;-3.58;76.27;103161.09;5072955;28;20035;-84
2024/01/09 10:52:37;;;;;;;6.07;2.63;;;;;;;-3.55;77.58;103156.50;5072702;28;20404;-84
2024/01/09 10:55:05;;;;;;;5.78;2.45;;;;;;;-3.51;79.30;103154.59;5072755;28;20025;-84
2024/01/09 10:57:31;;;;;;;5.00;2.33;;;;;;;-3.46;79.73;103143.78;5072990;28;20051;-84
2024/01/09 11:00:00;;;;;;;3.95;1.85;;;;;;;-3.43;80.46;103144.50;5058863;28;20340;-83
2024/01/09 11:02:32;;;;;;;4.88;1.90;;;;;;;-3.39;78.26;103138.13;5075379;28;20479;-83
2024/01/09 11:04:58;;;;;;;5.00;2.53;;;;;;;-3.37;77.23;103138.06;5043116;28;20033;-84
2024/01/09 11:07:24;;;;;;;4.77;2.40;;;;;;;-3.38;77.43;103125.69;5058599;28;20051;-84
2024/01/09 11:09:51;;;;;;;4.78;2.10;;;;;;;-3.32;77.03;103127.22;5074685;28;20039;-83
2024/01/09 11:12:20;;;;;;;5.20;2.00;;;;;;;-3.26;79.08;103122.53;5075748;28;20058;-84
2024/01/09 11:14:51;;;;;;;7.03;3.00;;;;;;;-3.23;74.02;103121.53;5076119;28;20143;-84
2024/01/09 11:17:17;;;;;;;7.15;3.28;;;;;;;-3.21;74.67;103115.19;5074548;28;20275;-84
2024/01/09 11:19:43;;;;;;;5.78;2.15;;;;;;;-3.15;77.49;103114.06;5058072;28;20036;-84